This demonstration page uses our WeatherBlox Daily Observations layout. Learn more.

39.01783, -85.05884

Hourly Observations for June 6, 2019

Temp ( °F °C ) Dew Point ( °F °C ) Humidity (%) Winds ( mph kmh ) Pressure ( in mb ) Visibility ( mi km ) Precip ( " mm )
12:52 am 00:52 Cloudy 68 20 64 17.8 87 87 VRB 6 9 29.77 1008 10 16.09344 0 0
1:52 am 01:52 Cloudy 67 19.4 64 17.8 91 91 SW 3 6 29.8 1009 10 16.09344 0 0
2:52 am 02:52 Cloudy 67 19.4 64 17.8 91 91 Calm 29.8 1009 10 16.09344 0 0
3:10 am 03:10 Cloudy 67 19.4 64 17.8 91 91 S 7 11 29.8 1009 9 14.484096 0 0
3:42 am 03:42 Cloudy 67 19.4 64 17.8 91 91 SSW 6 9 29.8 1009 9 14.484096 0 0
3:52 am 03:52 Cloudy 67 19.4 64 17.8 91 91 S 7 11 29.8 1009 9 14.484096 0 0
4:11 am 04:11 Cloudy 66 18.9 64 17.8 93 93 S 5 7 29.8 1009 7 11.265408 0.001 0.001
4:52 am 04:52 Mostly Cloudy with Mist and Fog 66 18.9 64 17.8 93 93 Calm 29.77 1008 6 9.656064 0.001 0.001
5:52 am 05:52 Mostly Cloudy with Patchy Fog 65 18.3 63 17.2 93 93 Calm 29.8 1009 5 8.04672 0 0
6:24 am 06:24 Mostly Cloudy with Patchy Fog 65 18.3 63 17.2 93 93 Calm 29.8 1009 2.5 4.02336 0 0
6:52 am 06:52 Mostly Cloudy with Patchy Fog 63 17.2 62 16.7 97 97 Calm 29.8 1009 0.5 0.804672 0 0
6:58 am 06:58 Mostly Cloudy with Fog 64 17.8 63 17.2 96 96 Calm 29.8 1009 0.5 0.804672 0 0
7:35 am 07:35 Mostly Cloudy with Patchy Fog 67 19.4 64 17.8 91 91 WSW 3 6 29.83 1010 0.5 0.804672 0 0
7:52 am 07:52 Mostly Cloudy with Patchy Fog 67 19.4 65 18.3 93 93 S 5 7 29.83 1010 5 8.04672 0 0
8:52 am 08:52 Mostly Cloudy 70 21.1 66 18.9 87 87 W 3 6 29.83 1010 8 12.874752 0 0
9:52 am 09:52 Mostly Cloudy 72 22.2 66 18.9 82 82 NW 3 6 29.83 1010 7 11.265408 0 0
10:52 am 10:52 Mostly Cloudy 75 23.9 66 18.9 74 74 Calm 29.85 1011 9 14.484096 0 0
11:52 am 11:52 Mostly Cloudy 79 26.1 68 20 69 69 Calm 29.85 1011 10 16.09344 0 0
12:52 pm 12:52 Mostly Cloudy 81 27.2 68 20 65 65 Calm 29.83 1010 10 16.09344 0 0
1:52 pm 13:52 Mostly Cloudy 81 27.2 66 18.9 61 61 ESE 6 9 29.83 1010 10 16.09344 0 0
2:52 pm 14:52 Mostly Cloudy 80 26.7 67 19.4 64 64 SSE 6 9 29.83 1010 10 16.09344 0 0
3:52 pm 15:52 Mostly Cloudy 82 27.8 67 19.4 60 60 S 7 11 29.8 1009 10 16.09344 0 0
4:52 pm 16:52 Mostly Cloudy 81 27.2 67 19.4 62 62 SSE 7 11 29.8 1009 10 16.09344 0 0
5:52 pm 17:52 Cloudy with Light Rain 78 25.6 67 19.4 69 69 ENE 13 20 29.8 1009 10 16.09344 0.01 0.254
6:52 pm 18:52 Cloudy 80 26.7 64 17.8 58 58 ESE 3 6 29.8 1009 10 16.09344 0.001 0.001
7:52 pm 19:52 Cloudy 80 26.7 67 19.4 64 64 E 3 6 29.8 1009 10 16.09344 0 0
8:52 pm 20:52 Cloudy 77 25 67 19.4 71 71 ESE 3 6 29.8 1009 10 16.09344 0 0
9:52 pm 21:52 Cloudy 78 25.6 67 19.4 69 69 ENE 6 9 29.8 1009 10 16.09344 0 0
10:52 pm 22:52 Cloudy 78 25.6 63 17.2 60 60 ENE 10 17 29.83 1010 10 16.09344 0 0
11:52 pm 23:52 Cloudy 75 23.9 65 18.3 71 71 ESE 6 9 29.83 1010 10 16.09344 0 0

Powered by AerisWeather